Time;durP1;ratioP1;P1;durP2;ratioP2;P2;SDS_P1;SDS_P2;PMS_P1;PMS_P2;Temp;Humidity;BMP_temperature;BMP_pressure;BME280_temperature;BME280_humidity;BME280_pressure;Samples;Min_cycle;Max_cycle;Signal;HPM_P1;HPM_P2
2023/05/28 00:00:32;;;;;;;0.00;0.00;;;;;;;11.45;60.91;100998.81;6097100;23;20043;-80
2023/05/28 00:02:57;;;;;;;0.00;0.00;;;;;;;11.52;61.36;101015.84;6117492;23;20010;-80
2023/05/28 00:05:23;;;;;;;0.00;0.00;;;;;;;11.49;61.65;100999.94;6121930;23;20039;-78
2023/05/28 00:07:48;;;;;;;0.00;0.00;;;;;;;11.42;62.08;101004.78;6097784;23;20097;-78
2023/05/28 00:10:14;;;;;;;0.00;0.00;;;;;;;11.46;61.92;101015.00;6194396;23;20309;-79
2023/05/28 00:12:39;;;;;;;0.00;0.00;;;;;;;11.37;62.43;101004.75;6231725;23;20022;-79
2023/05/28 00:15:05;;;;;;;0.00;0.00;;;;;;;11.38;62.59;101014.63;6157431;23;20033;-78
2023/05/28 00:17:31;;;;;;;0.00;0.00;;;;;;;11.39;62.43;101013.53;6206045;23;20045;-77
2023/05/28 00:19:56;;;;;;;0.00;0.00;;;;;;;11.40;62.84;101015.19;6253722;22;20005;-78
2023/05/28 00:22:21;;;;;;;0.00;0.00;;;;;;;11.38;62.64;101011.91;6124761;23;20005;-79
2023/05/28 00:24:47;;;;;;;0.00;0.00;;;;;;;11.34;63.13;101006.91;6123001;23;20636;-79
2023/05/28 00:27:12;;;;;;;0.00;0.00;;;;;;;11.31;63.06;101010.16;6194931;23;20024;-81
2023/05/28 00:29:38;;;;;;;0.00;0.00;;;;;;;11.25;63.18;101005.72;6225919;23;20098;-80
2023/05/28 00:32:04;;;;;;;0.00;0.00;;;;;;;11.20;63.71;100988.41;6248154;22;20020;-80
2023/05/28 00:34:29;;;;;;;0.00;0.00;;;;;;;11.20;63.47;100992.00;6225183;23;20021;-77
2023/05/28 00:36:54;;;;;;;0.00;0.00;;;;;;;11.24;63.44;100998.56;6197861;23;20452;-78
2023/05/28 00:39:20;;;;;;;0.00;0.00;;;;;;;11.24;64.10;100998.56;6202002;23;20009;-78
2023/05/28 00:41:46;;;;;;;0.00;0.00;;;;;;;11.27;63.77;101003.56;6124042;23;20104;-77
2023/05/28 00:44:12;;;;;;;0.00;0.00;;;;;;;11.20;64.52;100986.50;6149412;22;20025;-77
2023/05/28 00:46:44;;;;;;;0.00;0.00;;;;;;;11.28;64.43;101002.47;6241143;22;20505;-78
2023/05/28 00:49:11;;;;;;;0.00;0.00;;;;;;;11.25;64.61;101000.25;6115933;23;19998;-82
2023/05/28 00:51:43;;;;;;;0.00;0.00;;;;;;;11.16;64.99;100990.84;6223219;23;20006;-81
2023/05/28 00:54:11;;;;;;;0.00;0.00;;;;;;;11.15;65.07;100983.69;6113109;23;20010;-78
2023/05/28 00:56:40;;;;;;;0.00;0.00;;;;;;;11.30;65.28;100992.09;6110735;23;20081;-72
2023/05/28 00:59:06;;;;;;;0.00;0.00;;;;;;;11.48;64.90;100993.66;6089117;23;20088;-73
2023/05/28 01:01:31;;;;;;;0.00;0.00;;;;;;;11.59;64.60;100988.28;6109977;23;20103;-74
2023/05/28 01:03:58;;;;;;;0.00;0.00;;;;;;;11.64;64.71;100986.41;6115418;23;20018;-72
2023/05/28 01:06:24;;;;;;;0.00;0.00;;;;;;;11.73;64.02;100988.69;6082540;23;20085;-74
2023/05/28 01:08:50;;;;;;;0.00;0.00;;;;;;;11.79;64.32;100984.91;6088350;23;20010;-73
2023/05/28 01:11:18;;;;;;;0.00;0.00;;;;;;;11.81;64.04;100993.69;6115062;23;20020;-74
2023/05/28 01:13:45;;;;;;;0.00;0.00;;;;;;;11.80;64.00;100984.63;6089966;23;20432;-73
2023/05/28 01:16:11;;;;;;;0.00;0.00;;;;;;;11.87;63.93;100987.16;6114172;23;20002;-74
2023/05/28 01:18:39;;;;;;;0.00;0.00;;;;;;;11.88;63.59;100986.06;6087674;23;20006;-74
2023/05/28 01:21:06;;;;;;;0.00;0.00;;;;;;;11.92;63.58;100989.94;6104751;23;20006;-73
2023/05/28 01:23:47;;;;;;;0.00;0.00;;;;;;;11.93;63.82;100994.38;6115700;23;20014;-73
2023/05/28 01:26:15;;;;;;;0.00;0.00;;;;;;;11.93;64.17;100988.91;6084950;23;20014;-74
2023/05/28 01:28:45;;;;;;;0.00;0.00;;;;;;;11.92;63.90;100992.69;6114986;23;20021;-74
2023/05/28 01:31:11;;;;;;;0.00;0.00;;;;;;;11.85;63.94;100984.66;6081580;23;20086;-73
2023/05/28 01:33:38;;;;;;;0.00;0.00;;;;;;;11.82;64.06;100985.19;6109305;23;19997;-73
2023/05/28 01:36:07;;;;;;;0.00;0.00;;;;;;;11.81;64.37;100980.81;6110993;23;20010;-76
2023/05/28 01:38:35;;;;;;;0.00;0.00;;;;;;;11.80;64.35;100984.63;6088170;23;20088;-74
2023/05/28 01:41:02;;;;;;;0.00;0.00;;;;;;;11.75;64.10;100973.63;6114881;23;20006;-73
2023/05/28 01:43:27;;;;;;;0.00;0.00;;;;;;;11.75;64.54;100981.84;6114724;22;20013;-73
2023/05/28 01:45:54;;;;;;;0.00;0.00;;;;;;;11.74;64.62;100984.84;6145242;23;20006;-75
2023/05/28 01:48:20;;;;;;;0.00;0.00;;;;;;;11.77;64.34;100995.28;6139773;23;20016;-74
2023/05/28 01:50:46;;;;;;;0.00;0.00;;;;;;;11.65;64.26;100988.06;6145258;23;20013;-74
2023/05/28 01:53:12;;;;;;;0.00;0.00;;;;;;;11.56;65.40;101000.56;6113693;23;20009;-74
2023/05/28 01:55:37;;;;;;;0.00;0.00;;;;;;;11.33;65.44;100991.59;6143923;22;20092;-73
2023/05/28 01:58:03;;;;;;;0.00;0.00;;;;;;;11.24;65.41;100998.56;6144270;23;20277;-74
2023/05/28 02:00:29;;;;;;;0.00;0.00;;;;;;;11.20;66.03;101013.88;6090274;23;20436;-74
2023/05/28 02:02:54;;;;;;;0.00;0.00;;;;;;;11.19;65.61;101004.00;6145600;23;20012;-74
2023/05/28 02:05:20;;;;;;;0.00;0.00;;;;;;;11.18;65.40;101005.94;6243285;22;20026;-74
2023/05/28 02:07:46;;;;;;;0.00;0.00;;;;;;;11.19;65.48;101001.28;6118781;22;20006;-73
2023/05/28 02:10:11;;;;;;;0.10;0.10;;;;;;;11.19;65.42;101001.28;6114843;23;20366;-74
2023/05/28 02:12:36;;;;;;;0.00;0.00;;;;;;;11.18;65.78;100996.88;6095090;23;20505;-73
2023/05/28 02:15:02;;;;;;;0.00;0.00;;;;;;;11.17;65.88;101001.53;6116679;23;20340;-75
2023/05/28 02:17:27;;;;;;;0.00;0.00;;;;;;;11.15;65.71;100989.19;6141031;23;20033;-73
2023/05/28 02:19:53;;;;;;;0.00;0.00;;;;;;;11.12;65.83;100995.16;6143664;23;20331;-73
2023/05/28 02:22:18;;;;;;;0.00;0.00;;;;;;;11.07;66.15;100995.94;6114423;22;20523;-74
2023/05/28 02:24:46;;;;;;;0.00;0.00;;;;;;;11.07;66.00;100997.81;6118081;23;20009;-74
2023/05/28 02:27:12;;;;;;;0.00;0.00;;;;;;;11.06;66.50;101001.66;6246872;22;20013;-74
2023/05/28 02:29:38;;;;;;;0.00;0.00;;;;;;;10.98;66.30;100990.09;6140073;22;20009;-73
2023/05/28 02:32:03;;;;;;;0.00;0.00;;;;;;;10.95;66.79;100985.13;6118080;23;20006;-75
2023/05/28 02:34:29;;;;;;;0.00;0.00;;;;;;;10.96;66.79;100991.41;6140338;23;20377;-74
2023/05/28 02:36:55;;;;;;;0.00;0.00;;;;;;;10.94;66.78;100994.41;6221674;23;20013;-74
2023/05/28 02:39:21;;;;;;;0.00;0.00;;;;;;;10.94;67.16;100991.66;6141109;23;20009;-74
2023/05/28 02:41:47;;;;;;;0.00;0.00;;;;;;;10.98;67.54;100992.81;6146393;23;20362;-74
2023/05/28 02:44:12;;;;;;;0.00;0.00;;;;;;;10.94;67.80;100988.94;6182421;22;20034;-74
2023/05/28 02:46:37;;;;;;;0.00;0.00;;;;;;;10.96;67.75;100994.16;6239849;22;20004;-74
2023/05/28 02:49:03;;;;;;;0.00;0.00;;;;;;;10.92;67.86;100988.38;6242174;22;20035;-73
2023/05/28 02:51:29;;;;;;;0.00;0.00;;;;;;;10.90;67.74;100987.78;6213618;22;20008;-73
2023/05/28 02:53:54;;;;;;;0.00;0.00;;;;;;;10.84;68.24;100983.34;6239596;22;20019;-74
2023/05/28 02:56:21;;;;;;;0.00;0.00;;;;;;;10.87;68.25;100992.94;6238581;22;20012;-74
2023/05/28 02:58:47;;;;;;;0.00;0.00;;;;;;;10.81;68.18;100983.84;6269215;22;20436;-76
2023/05/28 03:01:12;;;;;;;0.00;0.00;;;;;;;10.79;68.10;100986.00;6271220;22;20083;-75
2023/05/28 03:03:37;;;;;;;0.00;0.00;;;;;;;10.77;67.83;100982.69;6265541;22;20000;-74
2023/05/28 03:06:03;;;;;;;0.00;0.00;;;;;;;10.75;68.52;100987.59;6238260;23;20004;-74
2023/05/28 03:08:28;;;;;;;0.00;0.00;;;;;;;10.70;68.58;100982.06;6258965;22;20039;-73
2023/05/28 03:10:54;;;;;;;0.00;0.00;;;;;;;10.69;68.50;100983.13;6264847;22;20094;-74
2023/05/28 03:13:19;;;;;;;0.00;0.00;;;;;;;10.62;68.53;100980.59;6238156;22;20141;-73
2023/05/28 03:15:45;;;;;;;0.00;0.00;;;;;;;10.60;69.29;100994.53;6268128;22;20014;-74
2023/05/28 03:18:10;;;;;;;0.00;0.00;;;;;;;10.56;69.30;100992.53;6270411;22;20023;-71
2023/05/28 03:20:35;;;;;;;0.00;0.00;;;;;;;10.47;69.12;100990.22;6238521;22;20003;-71
2023/05/28 03:23:01;;;;;;;0.00;0.00;;;;;;;10.46;69.28;100982.28;6258554;22;19996;-73
2023/05/28 03:25:27;;;;;;;0.00;0.00;;;;;;;10.46;69.51;100994.03;6243074;22;20102;-73
2023/05/28 03:27:53;;;;;;;0.00;0.00;;;;;;;10.41;69.29;100984.94;6238774;22;20362;-72
2023/05/28 03:30:19;;;;;;;0.00;0.00;;;;;;;10.37;69.45;100983.81;6271470;22;20003;-71
2023/05/28 03:32:44;;;;;;;0.00;0.00;;;;;;;10.31;69.88;100980.94;6214441;22;20053;-72
2023/05/28 03:35:10;;;;;;;0.00;0.00;;;;;;;10.28;69.57;100981.44;6243110;22;20008;-73
2023/05/28 03:37:35;;;;;;;0.00;0.00;;;;;;;10.25;70.04;100979.22;6213461;22;20445;-74
2023/05/28 03:40:02;;;;;;;0.00;0.00;;;;;;;10.24;69.61;100985.75;6243259;22;20008;-73
2023/05/28 03:42:27;;;;;;;0.00;0.00;;;;;;;10.20;69.78;100983.78;6270397;22;20031;-73
2023/05/28 03:44:55;;;;;;;0.00;0.00;;;;;;;10.11;70.02;100977.91;6171825;22;20062;-73
2023/05/28 03:47:20;;;;;;;0.00;0.00;;;;;;;10.08;70.45;100978.41;6242260;22;20024;-74
2023/05/28 03:49:45;;;;;;;0.00;0.00;;;;;;;10.10;70.56;100987.16;6243789;22;20077;-73
2023/05/28 03:52:11;;;;;;;0.00;0.00;;;;;;;10.05;70.38;100976.16;6145683;23;20070;-73
2023/05/28 03:54:36;;;;;;;0.00;0.00;;;;;;;10.05;70.48;100976.16;6244269;22;20009;-73
2023/05/28 03:57:02;;;;;;;0.00;0.00;;;;;;;10.06;70.18;100984.13;6195380;23;20014;-73
2023/05/28 03:59:27;;;;;;;0.00;0.00;;;;;;;10.06;70.39;100975.06;6247423;22;20421;-73
2023/05/28 04:01:53;;;;;;;0.00;0.00;;;;;;;10.04;70.48;100988.16;6139826;23;20005;-72
2023/05/28 04:04:18;;;;;;;0.00;0.00;;;;;;;9.94;70.75;100981.47;6144918;23;20556;-73
2023/05/28 04:06:44;;;;;;;0.00;0.00;;;;;;;9.91;70.49;100990.13;6243325;22;19998;-72
2023/05/28 04:09:09;;;;;;;0.00;0.00;;;;;;;9.87;70.34;100991.72;6247671;22;20006;-74
2023/05/28 04:11:37;;;;;;;0.00;0.00;;;;;;;9.89;70.61;100997.75;6140781;23;20002;-74
2023/05/28 04:14:03;;;;;;;0.00;0.00;;;;;;;9.87;70.86;100996.34;6147590;23;20006;-74
2023/05/28 04:16:28;;;;;;;0.00;0.00;;;;;;;9.83;70.40;100990.56;6119569;23;20059;-74
2023/05/28 04:18:54;;;;;;;0.00;0.00;;;;;;;9.88;70.64;100998.84;6217457;23;20013;-74
2023/05/28 04:21:22;;;;;;;0.00;0.00;;;;;;;9.91;70.90;100998.34;6146021;23;20084;-73
2023/05/28 04:23:47;;;;;;;0.00;0.00;;;;;;;9.99;70.95;100999.00;6145637;23;20012;-74
2023/05/28 04:26:14;;;;;;;0.00;0.00;;;;;;;10.01;70.65;100991.41;6113058;23;20096;-74
2023/05/28 04:28:40;;;;;;;0.00;0.00;;;;;;;10.03;70.87;100991.97;6247951;22;20014;-73
2023/05/28 04:31:06;;;;;;;0.00;0.00;;;;;;;9.99;70.88;100993.53;6090256;23;20020;-73
2023/05/28 04:33:32;;;;;;;0.00;0.00;;;;;;;9.96;70.89;100995.69;6118136;23;20080;-72
2023/05/28 04:35:59;;;;;;;0.00;0.00;;;;;;;9.99;70.64;100999.84;6141447;23;20424;-72
2023/05/28 04:38:25;;;;;;;0.03;0.03;;;;;;;10.01;70.71;100999.59;6118349;23;20009;-72
2023/05/28 04:40:50;;;;;;;0.00;0.00;;;;;;;10.05;71.20;101001.59;6141778;23;20429;-72
2023/05/28 04:43:16;;;;;;;0.00;0.00;;;;;;;10.16;70.96;101010.75;6092003;23;20092;-72
2023/05/28 04:45:43;;;;;;;0.00;0.00;;;;;;;10.22;71.32;101007.06;6246427;22;20028;-73
2023/05/28 04:48:08;;;;;;;0.00;0.00;;;;;;;10.29;70.88;101010.44;6139656;23;20685;-72
2023/05/28 04:50:34;;;;;;;0.00;0.00;;;;;;;10.36;70.81;101004.81;6117344;23;20016;-72
2023/05/28 04:53:00;;;;;;;0.00;0.00;;;;;;;10.42;70.82;101003.00;6112006;23;20009;-72
2023/05/28 04:55:25;;;;;;;0.00;0.00;;;;;;;10.44;70.74;101003.56;6118917;23;20632;-72
2023/05/28 04:57:51;;;;;;;0.00;0.00;;;;;;;10.51;70.88;101006.94;6191143;23;20013;-71
2023/05/28 05:00:17;;;;;;;0.00;0.00;;;;;;;10.59;70.91;101002.97;6141215;23;20344;-72
2023/05/28 05:02:43;;;;;;;0.00;0.00;;;;;;;10.66;70.90;101009.09;6144529;23;20016;-73
2023/05/28 05:05:09;;;;;;;0.00;0.00;;;;;;;10.72;71.00;101001.75;6139433;23;20347;-72
2023/05/28 05:07:36;;;;;;;0.00;0.00;;;;;;;10.83;70.59;101003.56;6118687;23;20016;-73
2023/05/28 05:10:05;;;;;;;0.00;0.00;;;;;;;10.92;70.64;101007.53;6139986;23;20017;-72
2023/05/28 05:12:31;;;;;;;0.00;0.00;;;;;;;10.92;71.02;100993.84;6119916;23;19998;-71
2023/05/28 05:14:56;;;;;;;0.00;0.00;;;;;;;11.06;70.76;101010.69;6244284;22;20375;-72
2023/05/28 05:17:22;;;;;;;0.00;0.00;;;;;;;11.07;70.67;101003.31;6118525;23;20052;-74
2023/05/28 05:19:47;;;;;;;0.00;0.00;;;;;;;11.20;70.28;101008.41;6093330;23;20071;-73
2023/05/28 05:22:13;;;;;;;0.00;0.00;;;;;;;11.24;70.47;101003.22;6242574;22;20006;-72
2023/05/28 05:24:38;;;;;;;0.00;0.00;;;;;;;11.31;70.80;101009.34;6117897;23;20684;-72
2023/05/28 05:27:04;;;;;;;0.00;0.00;;;;;;;11.32;70.55;101011.81;6118626;23;20006;-73
2023/05/28 05:29:30;;;;;;;0.00;0.00;;;;;;;11.41;70.22;101014.13;6218300;23;20005;-74
2023/05/28 05:31:56;;;;;;;0.00;0.00;;;;;;;11.51;70.33;101008.75;6143734;23;20063;-74
2023/05/28 05:34:24;;;;;;;0.00;0.00;;;;;;;11.49;69.71;100995.31;6115207;23;20013;-73
2023/05/28 05:36:50;;;;;;;0.00;0.00;;;;;;;11.66;70.30;101005.31;6144021;23;20092;-73
2023/05/28 05:39:15;;;;;;;0.00;0.00;;;;;;;11.80;69.99;101009.31;6115719;23;20101;-73
2023/05/28 05:41:41;;;;;;;0.00;0.00;;;;;;;11.89;70.35;101020.63;6145940;23;20063;-73
2023/05/28 05:44:06;;;;;;;0.00;0.00;;;;;;;11.96;69.86;101015.78;6145170;22;20112;-73
2023/05/28 05:46:31;;;;;;;0.00;0.00;;;;;;;12.02;69.88;101006.50;6111842;23;20017;-71
2023/05/28 05:48:57;;;;;;;0.00;0.00;;;;;;;12.10;69.70;101009.84;6246822;22;20350;-71
2023/05/28 05:51:22;;;;;;;0.00;0.00;;;;;;;12.23;69.77;101009.41;6114805;23;20033;-73
2023/05/28 05:53:48;;;;;;;0.00;0.00;;;;;;;12.28;69.07;101012.19;6144336;23;20005;-73
2023/05/28 05:56:13;;;;;;;0.00;0.00;;;;;;;12.34;69.20;101005.66;6116597;23;20373;-74
2023/05/28 05:58:39;;;;;;;0.00;0.00;;;;;;;12.34;68.83;101002.09;6095296;23;20108;-73
2023/05/28 06:01:05;;;;;;;0.00;0.00;;;;;;;12.38;68.99;100995.81;6119424;23;20028;-72
2023/05/28 06:03:51;;;;;;;0.00;0.00;;;;;;;12.53;69.31;101002.50;6142608;23;20006;-73
2023/05/28 06:06:17;;;;;;;0.00;0.00;;;;;;;12.60;68.47;101008.56;6094565;23;20012;-72
2023/05/28 06:08:42;;;;;;;0.00;0.00;;;;;;;12.67;68.77;101009.13;6140971;23;20006;-73
2023/05/28 06:11:09;;;;;;;0.00;0.00;;;;;;;12.78;68.32;101011.97;6144292;23;20420;-72
2023/05/28 06:13:35;;;;;;;0.00;0.00;;;;;;;12.86;68.95;101005.94;6113028;23;20170;-73
2023/05/28 06:16:02;;;;;;;0.00;0.00;;;;;;;13.00;68.12;101011.78;6221150;23;20067;-71
2023/05/28 06:18:29;;;;;;;0.00;0.00;;;;;;;13.05;68.11;101000.81;6141801;23;20052;-73
2023/05/28 06:20:55;;;;;;;0.00;0.00;;;;;;;13.21;67.83;101012.69;6139782;23;20017;-71
2023/05/28 06:23:42;;;;;;;0.00;0.00;;;;;;;13.31;67.37;101011.91;6117335;23;20009;-72
2023/05/28 06:26:07;;;;;;;0.00;0.00;;;;;;;13.30;67.81;100997.31;6137632;23;20085;-73
2023/05/28 06:28:32;;;;;;;0.00;0.00;;;;;;;13.47;67.22;101015.53;6116742;23;20048;-72
2023/05/28 06:30:58;;;;;;;0.00;0.00;;;;;;;13.58;66.95;101025.44;6138297;23;20025;-72
2023/05/28 06:33:24;;;;;;;0.00;0.00;;;;;;;13.66;66.93;101027.66;6089757;23;20101;-72
2023/05/28 06:35:49;;;;;;;0.00;0.00;;;;;;;13.74;66.84;101029.88;6241988;22;20340;-72
2023/05/28 06:38:15;;;;;;;0.00;0.00;;;;;;;13.87;66.34;101024.94;6245977;22;20090;-73
2023/05/28 06:40:40;;;;;;;0.00;0.00;;;;;;;13.95;66.94;101025.22;6094038;23;20315;-73
2023/05/28 06:43:06;;;;;;;0.00;0.00;;;;;;;14.08;66.08;101032.09;6112545;23;20006;-72
2023/05/28 06:45:32;;;;;;;0.00;0.00;;;;;;;14.18;66.61;101030.44;6232307;22;20027;-72
2023/05/28 06:48:06;;;;;;;0.00;0.00;;;;;;;14.30;66.01;101039.25;6115789;23;20010;-73
2023/05/28 06:50:41;;;;;;;0.00;0.00;;;;;;;14.40;65.87;101025.50;6117836;23;20017;-72
2023/05/28 06:53:07;;;;;;;0.00;0.00;;;;;;;14.48;65.66;101018.59;6112692;23;20009;-72
2023/05/28 06:55:35;;;;;;;0.00;0.00;;;;;;;14.69;65.16;101041.44;6146648;23;19998;-72
2023/05/28 06:58:03;;;;;;;0.00;0.00;;;;;;;14.82;65.02;101040.00;6118777;23;20006;-72
2023/05/28 07:00:36;;;;;;;0.00;0.00;;;;;;;14.81;64.83;101028.19;6124701;23;20001;-71
2023/05/28 07:03:01;;;;;;;0.00;0.00;;;;;;;14.86;65.01;101029.28;6118374;23;20006;-73
2023/05/28 07:05:27;;;;;;;0.00;0.00;;;;;;;14.88;64.72;101016.03;6121259;23;20435;-70
2023/05/28 07:07:55;;;;;;;0.00;0.00;;;;;;;15.10;64.56;101035.81;6116762;23;20097;-71
2023/05/28 07:10:20;;;;;;;0.00;0.00;;;;;;;15.28;64.05;101044.53;6142786;23;20083;-72
2023/05/28 07:12:51;;;;;;;0.00;0.00;;;;;;;15.25;64.07;101037.66;6119032;23;20001;-71
2023/05/28 07:15:21;;;;;;;0.00;0.00;;;;;;;15.32;63.77;101031.84;6140458;23;20009;-71
2023/05/28 07:17:46;;;;;;;0.00;0.00;;;;;;;15.46;63.79;101032.88;6118778;23;20013;-71
2023/05/28 07:20:32;;;;;;;0.00;0.00;;;;;;;15.58;63.57;101028.94;6118232;23;20009;-72
2023/05/28 07:22:59;;;;;;;0.00;0.00;;;;;;;15.79;63.22;101038.75;6119646;23;20016;-71
2023/05/28 07:25:25;;;;;;;0.00;0.00;;;;;;;15.93;62.42;101035.34;6095773;23;20044;-72
2023/05/28 07:27:50;;;;;;;0.00;0.00;;;;;;;16.16;62.29;101037.38;6141522;23;20009;-72
2023/05/28 07:30:17;;;;;;;0.00;0.00;;;;;;;16.25;62.10;101042.28;6118963;23;20462;-72
2023/05/28 07:32:42;;;;;;;0.00;0.00;;;;;;;16.31;62.09;101030.06;6141568;23;19994;-71
2023/05/28 07:35:08;;;;;;;0.00;0.00;;;;;;;16.43;61.74;101027.78;6248448;22;20016;-71
2023/05/28 07:37:33;;;;;;;0.00;0.00;;;;;;;16.50;61.39;101036.53;6116306;23;20375;-72
2023/05/28 07:40:03;;;;;;;0.00;0.00;;;;;;;16.65;61.28;101031.97;6145524;23;20293;-73
2023/05/28 07:42:41;;;;;;;0.00;0.00;;;;;;;16.85;60.50;101040.03;6120206;23;20016;-71
2023/05/28 07:45:07;;;;;;;0.00;0.00;;;;;;;17.07;60.32;101050.59;6230282;22;20055;-73
2023/05/28 07:47:42;;;;;;;0.00;0.00;;;;;;;17.14;60.35;101041.91;6140760;22;20656;-71
2023/05/28 07:50:14;;;;;;;0.00;0.00;;;;;;;17.45;59.46;101066.44;6270336;22;19995;-72
2023/05/28 07:52:40;;;;;;;0.00;0.00;;;;;;;17.57;59.09;101057.69;6139475;22;20018;-72
2023/05/28 07:55:07;;;;;;;0.00;0.00;;;;;;;17.59;58.73;101042.44;6135652;22;20015;-71
2023/05/28 07:57:32;;;;;;;0.00;0.00;;;;;;;17.63;57.63;101037.13;6230079;22;20019;-72
2023/05/28 07:59:59;;;;;;;0.00;0.00;;;;;;;17.83;57.78;101052.63;6109617;22;20015;-71
2023/05/28 08:02:27;;;;;;;0.00;0.00;;;;;;;17.99;56.86;101056.00;6270771;22;20003;-72
2023/05/28 08:04:53;;;;;;;0.00;0.00;;;;;;;18.13;56.61;101051.31;6160170;22;20004;-73
2023/05/28 08:07:19;;;;;;;0.00;0.00;;;;;;;18.28;56.22;101058.56;6269189;22;20081;-72
2023/05/28 08:09:54;;;;;;;0.00;0.00;;;;;;;18.28;56.15;101025.34;6216955;22;20426;-72
2023/05/28 08:12:22;;;;;;;0.00;0.00;;;;;;;18.52;55.62;101046.53;6149158;22;20366;-72
2023/05/28 08:15:06;;;;;;;0.00;0.00;;;;;;;18.81;54.88;101070.38;6270040;22;20013;-72
2023/05/28 08:17:33;;;;;;;0.00;0.00;;;;;;;18.97;54.98;101057.88;6138985;22;20023;-73
2023/05/28 08:19:59;;;;;;;0.00;0.00;;;;;;;19.16;54.75;101066.09;6271061;22;20007;-72
2023/05/28 08:22:24;;;;;;;0.00;0.00;;;;;;;19.32;53.97;101063.81;6266039;22;20008;-73
2023/05/28 08:24:50;;;;;;;0.00;0.00;;;;;;;19.54;53.50;101060.28;6269374;22;20019;-70
2023/05/28 08:27:15;;;;;;;0.00;0.00;;;;;;;19.71;52.54;101065.19;6111625;22;20012;-72
2023/05/28 08:29:41;;;;;;;0.00;0.00;;;;;;;19.83;51.86;101064.69;6267356;22;20068;-74
2023/05/28 08:32:06;;;;;;;0.00;0.00;;;;;;;19.94;51.33;101058.88;6266490;22;19999;-73
2023/05/28 08:34:34;;;;;;;0.00;0.00;;;;;;;20.06;50.71;101061.91;6260109;22;20018;-72
2023/05/28 08:37:00;;;;;;;0.00;0.00;;;;;;;20.18;50.22;101055.78;6135795;22;20474;-72
2023/05/28 08:39:26;;;;;;;0.00;0.00;;;;;;;20.36;49.92;101052.00;6135158;22;20012;-72
2023/05/28 08:41:52;;;;;;;0.00;0.00;;;;;;;20.45;48.42;101054.03;6141130;22;20476;-72
2023/05/28 08:44:19;;;;;;;0.00;0.00;;;;;;;20.55;47.88;101064.84;6216339;22;20021;-72
2023/05/28 08:46:45;;;;;;;0.00;0.00;;;;;;;20.63;46.65;101054.94;6141881;23;20021;-71
2023/05/28 08:49:12;;;;;;;0.00;0.00;;;;;;;20.74;46.27;101054.34;6220914;23;20021;-73
2023/05/28 08:51:40;;;;;;;0.00;0.00;;;;;;;20.87;46.06;101057.38;6138735;23;20059;-72
2023/05/28 08:54:06;;;;;;;0.00;0.00;;;;;;;20.97;45.69;101048.75;6141986;23;20390;-72
2023/05/28 08:56:31;;;;;;;0.00;0.00;;;;;;;21.08;44.84;101049.25;6141799;23;20006;-73
2023/05/28 08:58:58;;;;;;;0.00;0.00;;;;;;;21.16;44.46;101050.41;6115826;23;20024;-72
2023/05/28 09:01:23;;;;;;;0.00;0.00;;;;;;;21.26;44.53;101044.56;6139394;23;20010;-71
2023/05/28 09:03:49;;;;;;;0.00;0.00;;;;;;;21.37;43.51;101045.91;6145333;22;20677;-72
2023/05/28 09:06:16;;;;;;;0.00;0.00;;;;;;;21.50;43.40;101040.53;6117518;23;20013;-71
2023/05/28 09:08:44;;;;;;;0.00;0.00;;;;;;;21.48;42.03;101031.66;6113034;23;20763;-71
2023/05/28 09:11:11;;;;;;;0.00;0.00;;;;;;;21.60;42.38;101038.28;6143636;23;20010;-71
2023/05/28 09:13:45;;;;;;;0.00;0.00;;;;;;;21.80;41.79;101044.34;6139823;23;20016;-73
2023/05/28 09:16:12;;;;;;;0.00;0.00;;;;;;;21.86;42.32;101047.75;6142513;23;20001;-72
2023/05/28 09:18:38;;;;;;;0.00;0.00;;;;;;;21.95;42.16;101043.03;6141176;23;20009;-72
2023/05/28 09:21:10;;;;;;;0.00;0.00;;;;;;;22.08;42.17;101042.03;6140640;23;20009;-73
2023/05/28 09:23:36;;;;;;;0.00;0.00;;;;;;;22.25;41.42;101045.94;6145062;23;20039;-73
2023/05/28 09:26:02;;;;;;;0.00;0.00;;;;;;;22.28;41.73;101039.69;6139848;23;20006;-73
2023/05/28 09:28:28;;;;;;;0.00;0.00;;;;;;;22.40;41.50;101050.19;6143796;23;20328;-72
2023/05/28 09:31:02;;;;;;;0.00;0.00;;;;;;;22.55;41.39;101057.22;6114270;23;19998;-73
2023/05/28 09:33:28;;;;;;;0.00;0.00;;;;;;;22.49;40.59;101042.66;6118736;23;20009;-73
2023/05/28 09:36:01;;;;;;;0.00;0.00;;;;;;;22.63;40.94;101057.19;6138432;23;20009;-73
2023/05/28 09:38:27;;;;;;;0.00;0.00;;;;;;;22.71;39.78;101044.38;6147438;23;20012;-74
2023/05/28 09:40:56;;;;;;;0.00;0.00;;;;;;;22.75;39.02;101053.72;6243759;22;20001;-73
2023/05/28 09:43:28;;;;;;;0.00;0.00;;;;;;;22.84;39.17;101046.13;6145542;22;20370;-74
2023/05/28 09:46:08;;;;;;;0.00;0.00;;;;;;;22.94;38.81;101049.69;6144620;23;20018;-74
2023/05/28 09:48:34;;;;;;;0.00;0.00;;;;;;;22.98;38.71;101045.06;6145063;23;20075;-72
2023/05/28 09:51:04;;;;;;;0.00;0.00;;;;;;;22.99;38.58;101047.53;6119643;23;20001;-73
2023/05/28 09:53:33;;;;;;;0.00;0.00;;;;;;;23.03;37.75;101047.69;6144032;23;20046;-72
2023/05/28 09:56:00;;;;;;;0.00;0.00;;;;;;;23.12;37.73;101042.91;6245630;22;20013;-74
2023/05/28 09:58:31;;;;;;;0.00;0.00;;;;;;;23.26;36.87;101045.47;6142840;23;20424;-76
2023/05/28 10:01:00;;;;;;;0.00;0.00;;;;;;;23.42;36.66;101054.06;6144692;23;20033;-72
2023/05/28 10:03:37;;;;;;;0.00;0.00;;;;;;;23.59;37.29;101052.31;6141012;23;20010;-73
2023/05/28 10:06:14;;;;;;;0.00;0.00;;;;;;;23.95;37.13;101054.50;6145767;23;20436;-74
2023/05/28 10:08:41;;;;;;;0.00;0.00;;;;;;;24.22;36.88;101058.69;6140009;23;20012;-73
2023/05/28 10:11:13;;;;;;;0.00;0.00;;;;;;;24.32;36.45;101049.03;6246652;22;20017;-73
2023/05/28 10:13:40;;;;;;;0.00;0.00;;;;;;;24.38;35.40;101050.44;6115736;23;20055;-74
2023/05/28 10:16:05;;;;;;;0.00;0.00;;;;;;;24.50;35.75;101048.84;6121161;23;20087;-73
2023/05/28 10:18:31;;;;;;;0.00;0.00;;;;;;;24.64;35.39;101043.78;6119248;23;20005;-75
2023/05/28 10:20:58;;;;;;;0.00;0.00;;;;;;;24.82;35.47;101038.78;6146186;23;20013;-76
2023/05/28 10:23:24;;;;;;;0.00;0.00;;;;;;;24.96;34.62;101040.47;6148700;23;20012;-75
2023/05/28 10:25:50;;;;;;;0.00;0.00;;;;;;;25.04;34.58;101042.31;6221629;23;20017;-73
2023/05/28 10:28:16;;;;;;;0.00;0.00;;;;;;;25.15;34.26;101043.47;6121200;23;20006;-74
2023/05/28 10:30:42;;;;;;;0.00;0.00;;;;;;;25.26;34.45;101041.84;6142926;23;20005;-73
2023/05/28 10:33:18;;;;;;;0.00;0.00;;;;;;;25.32;33.78;101041.63;6145815;23;20340;-72
2023/05/28 10:35:53;;;;;;;0.00;0.00;;;;;;;25.48;33.91;101042.53;6143352;23;20072;-72
2023/05/28 10:38:18;;;;;;;0.00;0.00;;;;;;;25.74;34.19;101046.91;6145000;23;20034;-71
2023/05/28 10:40:44;;;;;;;0.00;0.00;;;;;;;25.89;33.82;101043.34;6146007;23;20009;-72
2023/05/28 10:43:46;;;;;;;0.00;0.00;;;;;;;25.94;33.10;101039.47;6113959;23;20009;-72
2023/05/28 10:46:16;;;;;;;0.00;0.00;;;;;;;26.18;32.94;101041.41;6140014;23;20596;-73
2023/05/28 10:49:08;;;;;;;0.00;0.00;;;;;;;26.68;32.03;101049.53;6145338;23;20006;-73
2023/05/28 10:52:03;;;;;;;0.00;0.00;;;;;;;27.19;31.12;101044.00;6142079;23;20549;-72
2023/05/28 10:54:37;;;;;;;0.00;0.00;;;;;;;27.87;30.16;101041.88;6115642;23;20010;-75
2023/05/28 10:57:16;;;;;;;0.00;0.00;;;;;;;28.41;28.63;101030.91;6146844;23;20038;-76
2023/05/28 11:00:06;;;;;;;0.00;0.00;;;;;;;29.09;27.76;101034.91;6115161;23;20036;-71
2023/05/28 11:02:35;;;;;;;0.00;0.00;;;;;;;29.82;25.85;101045.16;6119922;23;20316;-72
2023/05/28 11:05:03;;;;;;;0.00;0.00;;;;;;;31.32;25.40;101050.69;6140220;23;20033;-73
2023/05/28 11:07:30;;;;;;;0.00;0.00;;;;;;;33.28;23.72;101047.19;6143701;23;20001;-73
2023/05/28 11:09:58;;;;;;;0.00;0.00;;;;;;;34.67;22.25;101047.75;6115289;23;20006;-74
2023/05/28 11:12:27;;;;;;;0.00;0.00;;;;;;;35.82;20.79;101042.97;6144074;23;19998;-74
2023/05/28 11:14:53;;;;;;;0.00;0.00;;;;;;;37.08;19.26;101034.53;6142507;22;20721;-74
2023/05/28 11:17:19;;;;;;;0.00;0.00;;;;;;;38.22;18.77;101036.34;6114101;23;20015;-74
2023/05/28 11:19:46;;;;;;;0.00;0.00;;;;;;;39.45;17.68;101040.53;6139380;23;20117;-72
2023/05/28 11:22:13;;;;;;;0.00;0.00;;;;;;;40.41;16.69;101025.81;6140738;23;20044;-72
2023/05/28 11:24:59;;;;;;;0.00;0.00;;;;;;;41.34;15.97;101024.66;6141762;23;20022;-72
2023/05/28 11:27:29;;;;;;;0.00;0.00;;;;;;;42.50;15.57;101026.72;6114129;23;20025;-72